Terminal Aerodrome Forecast
Issued by NWS Upton, NY

Home | Current Version | Previous Version | Text Only | Print | Product List | Glossary On
Versions: 1 2 3 4 5 6 7 8 9 10 11 12 13 14 15 16 17 18 19 20 21 22 23 24 25 26 27 28 29 30 31 32 33 34 35 36 37 38 39
000
FTUS41 KOKX 180830 AAA
TAFJFK
TAF AMD
KJFK 180830Z 1809/1912 17007KT P6SM SCT008 BKN040
     FM181000 18009KT 4SM -SHRA VCTS OVC030CB
     FM181200 18012G18KT 3SM SHRA VCTS OVC015CB
      TEMPO 1812/1815 2SM +SHRA OVC015
     FM181600 18014G20KT P6SM SCT020 BKN040
     FM182200 19014G20KT 6SM -SHRA VCTS OVC035CB PROB30 1822/1901
      2SM TSRA OVC025CB
     FM190500 21009KT 4SM BR VCSH OVC050
     FM190900 23008KT P6SM BKN060=

USA.gov is the U.S. government's official web portal to all federal, state and local government web resources and services.